Terminal Aerodrome Forecast
Issued by NWS

Home | Current Version | Previous Version | Text Only | Print | Product List | Glossary On
Versions: 1 2 3 4 5 6 7 8 9 10 11 12 13 14 15 16 17 18
000
FTUS41 KPBZ 281134
TAFMGW
TAF
KMGW 281134Z 2812/2912 VRB03KT P6SM BKN250
     FM281500 21005KT P6SM SCT035
     FM282200 24005KT P6SM VCTS BKN040CB
     FM290100 VRB03KT P6SM BKN150=

USA.gov is the U.S. government's official web portal to all federal, state and local government web resources and services.